Elkton, Colorado
Current Conditions -  °F | °C
As of 12:56 AM on Sunday 26 Oct 2014 (Local Time) from KCWN Reporting Station
Clear Clear  
Wind Chill: 60°   Ceiling: Unl
Heat Index: 60°   Visibility: 10mi
Dew Point: 22°   Wind: 2mph
Humidity: 23%   Direction: NA
Pressure: 30.05"   Gusts: NA
Location:  38.6816°N, 105.071°W
Report Text: KCWN 260656Z AUTO VRB02KT 10SM CLR 16/M05 A3005 RMK AO2 SLP089 T01561054 402330148
Loading
Personal Weather Stations






























Interactive Weather Map
Tropical Storm Tracking
New forecast layout! Learn more

10-Day Weather Forecast

Advertisements
Track Severe Weather on mobile